createdAt,value
2022-11-09T00:00:42.565Z,7.82
2022-11-09T00:03:10.415Z,9.30
2022-11-09T00:05:39.733Z,11.15
2022-11-09T00:08:08.250Z,9.32
2022-11-09T00:10:36.368Z,9.90
2022-11-09T00:13:04.266Z,9.18
2022-11-09T00:15:32.225Z,11.23
2022-11-09T00:18:01.794Z,9.40
2022-11-09T00:20:29.738Z,9.32
2022-11-09T00:22:58.966Z,10.52
2022-11-09T00:25:26.889Z,9.50
2022-11-09T00:27:54.851Z,11.82
2022-11-09T00:30:22.761Z,9.65
2022-11-09T00:32:50.665Z,8.70
2022-11-09T00:35:18.718Z,7.45
2022-11-09T00:37:46.682Z,9.18
2022-11-09T00:40:16.232Z,8.70
2022-11-09T00:42:44.116Z,9.43
2022-11-09T00:45:12.244Z,7.97
2022-11-09T00:47:40.178Z,8.60
2022-11-09T00:50:08.993Z,9.00
2022-11-09T00:52:38.399Z,10.80
2022-11-09T00:55:06.929Z,9.07
2022-11-09T00:57:36.169Z,12.23
2022-11-09T01:00:04.930Z,9.00
2022-11-09T01:02:32.871Z,10.52
2022-11-09T01:05:00.988Z,10.82
2022-11-09T01:07:28.933Z,9.80
2022-11-09T01:09:56.856Z,9.90
2022-11-09T01:12:25.750Z,7.20
2022-11-09T01:14:54.989Z,8.20
2022-11-09T01:17:23.102Z,9.32
2022-11-09T01:19:51.046Z,8.43
2022-11-09T01:22:19.633Z,11.07
2022-11-09T01:24:48.899Z,8.38
2022-11-09T01:27:17.666Z,8.77
2022-11-09T01:29:45.585Z,8.80
2022-11-09T01:32:14.824Z,7.57
2022-11-09T01:34:43.405Z,10.60
2022-11-09T01:37:11.371Z,7.78
2022-11-09T01:39:39.290Z,8.30
2022-11-09T01:42:07.233Z,9.02
2022-11-09T01:44:36.109Z,9.60
2022-11-09T01:47:05.466Z,8.00
2022-11-09T01:49:40.750Z,10.00
2022-11-09T01:52:12.732Z,8.82
2022-11-09T01:54:43.870Z,9.23
2022-11-09T01:57:13.176Z,9.23
2022-11-09T01:59:42.628Z,8.70
2022-11-09T02:02:10.563Z,9.25
2022-11-09T02:04:44.438Z,8.73
2022-11-09T02:07:12.588Z,9.45
2022-11-09T02:09:42.697Z,7.53
2022-11-09T02:12:10.647Z,10.20
2022-11-09T02:14:38.535Z,9.65
2022-11-09T02:17:06.426Z,8.00
2022-11-09T02:19:34.289Z,7.72
2022-11-09T02:22:03.596Z,8.02
2022-11-09T02:24:33.552Z,9.50
2022-11-09T02:27:01.436Z,7.50
2022-11-09T02:29:38.277Z,8.32
2022-11-09T02:32:10.102Z,7.75
2022-11-09T02:34:38.163Z,9.68
2022-11-09T02:37:08.031Z,8.63
2022-11-09T02:39:35.980Z,8.15
2022-11-09T02:42:09.033Z,8.68
2022-11-09T02:44:39.691Z,9.15
2022-11-09T02:47:08.979Z,8.75
2022-11-09T02:49:36.868Z,8.90
2022-11-09T02:52:04.993Z,8.05
2022-11-09T02:54:34.337Z,9.20
2022-11-09T02:57:02.384Z,10.40
2022-11-09T02:59:30.647Z,8.13
2022-11-09T03:01:59.532Z,8.27
2022-11-09T03:04:30.491Z,7.78
2022-11-09T03:06:58.776Z,8.20
2022-11-09T03:09:26.975Z,9.75
2022-11-09T03:11:56.287Z,9.57
2022-11-09T03:14:24.187Z,9.60
2022-11-09T03:16:56.177Z,7.75
2022-11-09T03:19:24.626Z,8.35
2022-11-09T03:21:53.666Z,10.23
2022-11-09T03:24:24.708Z,7.63
2022-11-09T03:26:57.994Z,9.88
2022-11-09T03:29:26.341Z,8.15
2022-11-09T03:31:56.646Z,9.88
2022-11-09T03:34:24.720Z,8.43
2022-11-09T03:36:52.675Z,8.38
2022-11-09T03:39:21.877Z,7.63
2022-11-09T03:41:49.834Z,11.32
2022-11-09T03:44:20.066Z,8.02
2022-11-09T03:46:48.169Z,8.77
2022-11-09T03:49:16.019Z,9.23
2022-11-09T03:51:43.918Z,11.10
2022-11-09T03:54:11.853Z,8.98
2022-11-09T03:56:39.716Z,8.95
2022-11-09T03:59:07.601Z,8.60
2022-11-09T04:01:36.897Z,8.63
2022-11-09T04:04:04.896Z,8.32
2022-11-09T04:06:32.803Z,10.85
2022-11-09T04:09:00.728Z,9.13
2022-11-09T04:11:28.594Z,9.88
2022-11-09T04:13:56.641Z,9.85
2022-11-09T04:16:24.480Z,8.30
2022-11-09T04:18:53.748Z,8.77
2022-11-09T04:21:24.017Z,8.63
2022-11-09T04:23:52.153Z,10.00
2022-11-09T04:26:20.009Z,9.90
2022-11-09T04:28:47.905Z,8.68
2022-11-09T04:31:15.850Z,8.00
2022-11-09T04:33:43.731Z,8.55
2022-11-09T04:36:13.101Z,8.90
2022-11-09T04:38:40.987Z,8.60
2022-11-09T04:41:09.334Z,9.10
2022-11-09T04:43:37.234Z,8.35
2022-11-09T04:46:05.164Z,10.18
2022-11-09T04:48:33.265Z,10.23
2022-11-09T04:51:02.236Z,11.10
2022-11-09T04:53:31.685Z,9.05
2022-11-09T04:55:59.569Z,8.45
2022-11-09T04:58:27.451Z,7.78
2022-11-09T05:00:55.419Z,9.38
2022-11-09T05:03:23.558Z,9.38
2022-11-09T05:05:51.557Z,10.20
2022-11-09T05:08:19.500Z,8.35
2022-11-09T05:10:48.753Z,14.57
2022-11-09T05:13:17.088Z,9.50
2022-11-09T05:15:45.133Z,9.45
2022-11-09T05:18:13.041Z,9.60
2022-11-09T05:20:41.048Z,8.68
2022-11-09T05:23:26.433Z,8.23
2022-11-09T05:25:55.648Z,10.02
2022-11-09T05:28:23.700Z,8.43
2022-11-09T05:30:51.705Z,9.88
2022-11-09T05:33:19.799Z,8.70
2022-11-09T05:35:47.856Z,8.95
2022-11-09T05:38:15.748Z,8.10
2022-11-09T05:40:43.610Z,9.25
2022-11-09T05:43:13.002Z,10.07
2022-11-09T05:45:43.076Z,9.32
2022-11-09T05:48:11.480Z,8.02
2022-11-09T05:50:39.369Z,8.30
2022-11-09T05:53:23.595Z,10.80
2022-11-09T05:55:51.902Z,9.57
2022-11-09T05:58:21.110Z,9.10
2022-11-09T06:00:49.004Z,7.28
2022-11-09T06:03:17.000Z,9.45
2022-11-09T06:05:44.960Z,8.73
2022-11-09T06:08:14.053Z,9.48
2022-11-09T06:10:41.903Z,8.23
2022-11-09T06:13:09.970Z,8.30
2022-11-09T06:15:39.172Z,10.75
2022-11-09T06:18:07.158Z,12.57
2022-11-09T06:20:38.287Z,10.07
2022-11-09T06:23:08.802Z,10.23
2022-11-09T06:25:37.926Z,9.73
2022-11-09T06:28:05.938Z,10.20
2022-11-09T06:30:33.796Z,9.77
2022-11-09T06:33:03.486Z,8.77
2022-11-09T06:35:31.773Z,8.57
2022-11-09T06:38:00.153Z,10.75
2022-11-09T06:40:28.180Z,20.15
2022-11-09T06:42:57.986Z,22.90
2022-11-09T06:45:26.101Z,30.67
2022-11-09T06:47:56.568Z,23.48
2022-11-09T06:50:26.057Z,29.58
2022-11-09T06:52:57.171Z,27.83
2022-11-09T06:55:25.305Z,25.27
2022-11-09T06:57:53.367Z,26.83
2022-11-09T07:00:21.706Z,27.35
2022-11-09T07:02:49.669Z,35.53
2022-11-09T07:05:17.742Z,24.60
2022-11-09T07:07:47.014Z,28.13
2022-11-09T07:10:14.944Z,26.83
2022-11-09T07:12:42.965Z,23.38
2022-11-09T07:15:12.362Z,29.90
2022-11-09T07:17:41.196Z,28.40
2022-11-09T07:20:10.176Z,26.88
2022-11-09T07:22:39.474Z,23.55
2022-11-09T07:25:09.621Z,25.83
2022-11-09T07:27:37.695Z,23.60
2022-11-09T07:30:06.344Z,26.60
2022-11-09T07:33:06.822Z,26.98
2022-11-09T07:35:22.430Z,24.00
2022-11-09T07:37:50.353Z,24.27
2022-11-09T07:40:20.065Z,26.40
2022-11-09T07:42:47.967Z,22.45
2022-11-09T07:45:16.254Z,21.80
2022-11-09T07:47:44.281Z,20.63
2022-11-09T07:50:12.208Z,22.67
2022-11-09T07:52:40.101Z,22.45
2022-11-09T07:55:08.757Z,18.98
2022-11-09T07:57:38.011Z,21.85
2022-11-09T08:00:06.614Z,20.65
2022-11-09T08:02:39.342Z,18.75
2022-11-09T08:05:08.093Z,17.48
2022-11-09T08:07:36.083Z,19.17
2022-11-09T08:10:04.025Z,21.45
2022-11-09T08:12:36.903Z,18.33
2022-11-09T08:15:07.709Z,19.58
2022-11-09T08:17:36.052Z,18.92
2022-11-09T08:20:04.091Z,18.17
2022-11-09T08:22:32.036Z,15.93
2022-11-09T08:24:59.925Z,20.00
2022-11-09T08:27:30.855Z,18.45
2022-11-09T08:29:58.744Z,18.48
2022-11-09T08:32:27.990Z,17.30
2022-11-09T08:34:55.884Z,21.00
2022-11-09T08:37:23.797Z,16.35
2022-11-09T08:39:51.686Z,17.95
2022-11-09T08:42:19.647Z,21.55
2022-11-09T08:44:47.617Z,17.33
2022-11-09T08:47:15.518Z,16.92
2022-11-09T08:49:47.119Z,24.52
2022-11-09T08:52:15.111Z,19.25
2022-11-09T08:54:43.011Z,23.65
2022-11-09T08:57:10.872Z,26.80
2022-11-09T08:59:38.875Z,102.00
2022-11-09T09:02:06.829Z,75.78
2022-11-09T09:04:35.421Z,54.20
2022-11-09T09:07:04.665Z,44.97
2022-11-09T09:09:32.969Z,58.33
2022-11-09T09:12:00.870Z,61.53
2022-11-09T09:14:28.806Z,53.65
2022-11-09T09:16:56.682Z,65.25
2022-11-09T09:19:24.565Z,56.63
2022-11-09T09:21:52.416Z,68.57
2022-11-09T09:24:21.781Z,59.13
2022-11-09T09:26:49.959Z,55.15
2022-11-09T09:29:18.108Z,50.08
2022-11-09T09:31:45.983Z,53.55
2022-11-09T09:34:13.897Z,52.03
2022-11-09T09:36:47.425Z,59.65
2022-11-09T09:39:16.068Z,57.25
2022-11-09T09:41:47.470Z,49.15
2022-11-09T09:44:21.191Z,49.53
2022-11-09T09:46:51.050Z,61.22
2022-11-09T09:49:21.559Z,59.05
2022-11-09T09:51:50.887Z,64.80
2022-11-09T09:54:20.737Z,60.53
2022-11-09T09:56:50.656Z,51.78
2022-11-09T09:59:21.510Z,53.00
2022-11-09T10:01:49.626Z,61.70
2022-11-09T10:04:19.523Z,50.97
2022-11-09T10:06:59.388Z,56.67
2022-11-09T10:09:35.658Z,53.17
2022-11-09T10:12:09.783Z,60.47
2022-11-09T10:15:13.725Z,53.40
2022-11-09T10:17:45.715Z,41.83
2022-11-09T10:20:23.255Z,51.15
2022-11-09T10:22:56.483Z,41.65
2022-11-09T10:25:43.495Z,44.00
2022-11-09T10:28:15.649Z,43.75
2022-11-09T10:30:43.932Z,43.17
2022-11-09T10:33:15.814Z,39.00
2022-11-09T10:35:45.804Z,38.83
2022-11-09T10:38:16.219Z,39.50
2022-11-09T10:40:52.548Z,42.45
2022-11-09T10:43:40.264Z,44.25
2022-11-09T10:46:26.592Z,35.70
2022-11-09T10:49:20.327Z,34.55
2022-11-09T10:52:09.334Z,32.53
2022-11-09T10:54:55.810Z,32.25
2022-11-09T10:57:42.554Z,38.60
2022-11-09T11:00:30.398Z,28.20
2022-11-09T11:03:18.059Z,38.92
2022-11-09T11:06:06.739Z,36.20
2022-11-09T11:08:55.485Z,30.95
2022-11-09T11:11:42.194Z,29.20
2022-11-09T11:14:30.982Z,31.80
2022-11-09T11:17:26.418Z,30.25
2022-11-09T11:20:34.531Z,28.30
2022-11-09T11:23:22.504Z,28.08
2022-11-09T11:26:30.913Z,29.00
2022-11-09T11:29:30.445Z,30.65
2022-11-09T11:32:18.579Z,28.38
2022-11-09T11:35:13.120Z,27.65
2022-11-09T11:38:06.307Z,28.63
2022-11-09T11:41:01.014Z,26.00
2022-11-09T11:43:50.212Z,29.05
2022-11-09T11:46:41.865Z,26.70
2022-11-09T11:49:39.207Z,29.02
2022-11-09T11:52:29.941Z,24.05
2022-11-09T11:55:23.330Z,28.83
2022-11-09T11:58:20.202Z,20.92
2022-11-09T12:01:14.069Z,28.63
2022-11-09T12:04:04.201Z,21.63
2022-11-09T12:06:55.757Z,23.02
2022-11-09T12:09:57.180Z,23.77
2022-11-09T12:12:46.901Z,25.20
2022-11-09T12:15:41.929Z,23.38
2022-11-09T12:18:40.355Z,24.02
2022-11-09T12:21:29.873Z,22.73
2022-11-09T12:24:20.376Z,25.10
2022-11-09T12:27:34.013Z,20.33
2022-11-09T12:30:22.056Z,26.17
2022-11-09T12:33:10.216Z,19.50
2022-11-09T12:35:59.371Z,21.50
2022-11-09T12:38:52.744Z,22.98
2022-11-09T12:41:39.309Z,20.58
2022-11-09T12:44:28.702Z,21.13
2022-11-09T12:47:16.402Z,22.10
2022-11-09T12:50:02.781Z,17.98
2022-11-09T12:52:50.206Z,21.23
2022-11-09T12:55:41.698Z,19.85
2022-11-09T12:58:29.153Z,21.35
2022-11-09T13:01:48.641Z,22.35
2022-11-09T13:04:35.342Z,19.92
2022-11-09T13:07:47.008Z,22.50
2022-11-09T13:10:34.467Z,19.33
2022-11-09T13:13:25.261Z,21.35
2022-11-09T13:16:32.262Z,20.50
2022-11-09T13:19:55.245Z,17.95
2022-11-09T13:23:01.403Z,19.75
2022-11-09T13:25:52.881Z,18.27
2022-11-09T13:29:10.315Z,17.48
2022-11-09T13:32:25.481Z,17.15
2022-11-09T13:35:41.949Z,21.23
2022-11-09T13:38:31.623Z,18.50
2022-11-09T13:41:43.719Z,18.98
2022-11-09T13:44:32.961Z,18.30
2022-11-09T13:47:23.633Z,20.70
2022-11-09T13:50:17.845Z,19.00
2022-11-09T13:53:04.400Z,16.52
2022-11-09T13:55:52.660Z,18.83
2022-11-09T13:58:39.821Z,17.60
2022-11-09T14:01:28.021Z,18.40
2022-11-09T14:04:25.690Z,17.92
2022-11-09T14:07:21.251Z,17.15
2022-11-09T14:10:11.274Z,20.80
2022-11-09T14:13:07.505Z,19.20
2022-11-09T14:15:55.889Z,19.23
2022-11-09T14:18:47.909Z,18.60
2022-11-09T14:21:39.955Z,16.67
2022-11-09T14:24:29.531Z,18.10
2022-11-09T14:27:20.654Z,17.20
2022-11-09T14:30:17.117Z,18.05
2022-11-09T14:33:03.363Z,16.60
2022-11-09T14:35:49.814Z,16.70
2022-11-09T14:38:37.126Z,17.08
2022-11-09T14:41:25.107Z,17.25
2022-11-09T14:44:14.883Z,17.23
2022-11-09T14:47:02.736Z,16.40
2022-11-09T14:49:49.006Z,16.42
2022-11-09T14:52:35.285Z,18.20
2022-11-09T14:55:22.374Z,17.25
2022-11-09T14:58:12.192Z,17.05
2022-11-09T15:01:09.171Z,16.38
2022-11-09T15:04:12.052Z,16.20
2022-11-09T15:07:00.419Z,17.52
2022-11-09T15:09:48.305Z,14.27
2022-11-09T15:12:34.661Z,16.17
2022-11-09T15:15:22.287Z,15.63
2022-11-09T15:18:17.963Z,15.70
2022-11-09T15:21:13.970Z,17.17
2022-11-09T15:24:05.165Z,14.98
2022-11-09T15:26:52.802Z,15.18
2022-11-09T15:29:40.464Z,15.23
2022-11-09T15:32:27.268Z,14.13
2022-11-09T15:35:17.740Z,17.67
2022-11-09T15:38:05.391Z,14.77
2022-11-09T15:40:51.931Z,14.88
2022-11-09T15:43:38.266Z,14.48
2022-11-09T15:46:25.670Z,17.00
2022-11-09T15:49:17.876Z,15.48
2022-11-09T15:52:05.555Z,14.57
2022-11-09T15:54:53.543Z,15.63
2022-11-09T15:57:40.162Z,18.75
2022-11-09T16:00:26.491Z,15.27
2022-11-09T16:03:12.891Z,18.15
2022-11-09T16:06:00.887Z,17.65
2022-11-09T16:08:48.416Z,16.35
2022-11-09T16:11:36.251Z,17.27
2022-11-09T16:14:22.961Z,15.60
2022-11-09T16:17:09.606Z,16.17
2022-11-09T16:19:55.897Z,16.17
2022-11-09T16:22:42.143Z,16.40
2022-11-09T16:25:28.332Z,17.65
2022-11-09T16:28:15.912Z,14.95
2022-11-09T16:31:02.527Z,14.43
2022-11-09T16:33:49.372Z,18.23
2022-11-09T16:36:37.276Z,15.70
2022-11-09T16:39:23.960Z,15.93
2022-11-09T16:42:11.314Z,15.48
2022-11-09T16:45:00.284Z,12.50
2022-11-09T16:47:47.701Z,14.52
2022-11-09T16:50:34.054Z,15.13
2022-11-09T16:53:25.551Z,13.60
2022-11-09T16:56:13.769Z,14.50
2022-11-09T16:59:00.632Z,14.40
2022-11-09T17:01:52.641Z,14.13
2022-11-09T17:04:39.212Z,15.88
2022-11-09T17:07:25.457Z,14.07
2022-11-09T17:10:11.714Z,14.95
2022-11-09T17:12:57.949Z,13.57
2022-11-09T17:15:44.896Z,14.90
2022-11-09T17:18:32.765Z,13.60
2022-11-09T17:21:19.068Z,14.93
2022-11-09T17:24:06.398Z,14.50
2022-11-09T17:26:53.347Z,12.00
2022-11-09T17:29:40.686Z,15.13
2022-11-09T17:32:28.212Z,15.15
2022-11-09T17:35:16.557Z,12.85
2022-11-09T17:38:02.928Z,15.38
2022-11-09T17:40:49.208Z,12.15
2022-11-09T17:43:36.927Z,13.75
2022-11-09T17:46:23.560Z,14.73
2022-11-09T17:49:10.703Z,14.93
2022-11-09T17:51:58.707Z,13.38
2022-11-09T17:54:45.543Z,14.00
2022-11-09T17:57:32.917Z,15.05
2022-11-09T18:00:20.441Z,13.57
2022-11-09T18:03:07.005Z,12.48
2022-11-09T18:05:53.245Z,15.27
2022-11-09T18:08:40.966Z,13.38
2022-11-09T18:11:29.897Z,13.63
2022-11-09T18:14:16.811Z,14.60
2022-11-09T18:17:03.129Z,14.85
2022-11-09T18:19:49.450Z,17.92
2022-11-09T18:22:35.892Z,14.50
2022-11-09T18:25:23.612Z,12.98
2022-11-09T18:28:10.025Z,13.15
2022-11-09T18:31:00.808Z,14.07
2022-11-09T18:33:47.470Z,15.10
2022-11-09T18:36:33.765Z,16.85
2022-11-09T18:39:20.118Z,13.98
2022-11-09T18:42:07.874Z,18.98
2022-11-09T18:44:54.386Z,13.90
2022-11-09T18:47:40.791Z,17.77
2022-11-09T18:50:26.999Z,13.88
2022-11-09T18:53:13.378Z,13.45
2022-11-09T18:56:06.041Z,14.70
2022-11-09T18:58:56.188Z,14.10
2022-11-09T19:01:42.844Z,14.13
2022-11-09T19:04:29.132Z,14.13
2022-11-09T19:07:15.614Z,18.35
2022-11-09T19:10:02.964Z,14.63
2022-11-09T19:12:49.416Z,16.90
2022-11-09T19:15:39.356Z,16.48
2022-11-09T19:18:26.681Z,18.00
2022-11-09T19:21:27.078Z,15.57
2022-11-09T19:24:14.733Z,15.50
2022-11-09T19:27:02.884Z,14.02
2022-11-09T19:29:49.637Z,18.85
2022-11-09T19:32:37.823Z,16.60
2022-11-09T19:35:27.365Z,17.02
2022-11-09T19:38:16.337Z,18.48
2022-11-09T19:41:02.847Z,15.55
2022-11-09T19:43:50.329Z,20.35
2022-11-09T19:46:36.991Z,24.23
2022-11-09T19:49:24.967Z,18.27
2022-11-09T19:52:11.587Z,24.13
2022-11-09T19:54:57.880Z,21.95
2022-11-09T19:57:44.154Z,17.48
2022-11-09T20:00:31.187Z,21.17
2022-11-09T20:03:17.586Z,16.02
2022-11-09T20:06:06.053Z,18.13
2022-11-09T20:08:53.805Z,22.15
2022-11-09T20:11:57.885Z,18.10
2022-11-09T20:14:44.693Z,20.48
2022-11-09T20:17:31.346Z,23.45
2022-11-09T20:20:18.015Z,20.80
2022-11-09T20:23:06.046Z,19.50
2022-11-09T20:25:52.417Z,21.05
2022-11-09T20:28:38.751Z,16.33
2022-11-09T20:31:25.284Z,17.50
2022-11-09T20:34:11.751Z,19.90
2022-11-09T20:36:58.706Z,23.38
2022-11-09T20:39:46.473Z,19.45
2022-11-09T20:42:33.256Z,17.90
2022-11-09T20:45:19.594Z,19.02
2022-11-09T20:48:19.491Z,18.98
2022-11-09T20:51:15.309Z,18.58
2022-11-09T20:54:06.833Z,16.40
2022-11-09T20:56:55.248Z,16.55
2022-11-09T20:59:41.825Z,18.75
2022-11-09T21:02:28.172Z,19.02
2022-11-09T21:05:14.623Z,18.17
2022-11-09T21:08:02.114Z,16.33
2022-11-09T21:10:48.947Z,16.55
2022-11-09T21:13:36.967Z,16.55
2022-11-09T21:16:24.118Z,18.13
2022-11-09T21:19:10.640Z,16.15
2022-11-09T21:21:57.737Z,15.32
2022-11-09T21:25:02.020Z,15.25
2022-11-09T21:28:06.202Z,15.50
2022-11-09T21:30:54.063Z,16.05
2022-11-09T21:33:40.700Z,16.48
2022-11-09T21:36:27.433Z,15.70
2022-11-09T21:39:14.027Z,13.88
2022-11-09T21:42:00.558Z,15.98
2022-11-09T21:44:46.873Z,14.35
2022-11-09T21:47:34.667Z,16.20
2022-11-09T21:50:20.867Z,13.93
2022-11-09T21:53:07.155Z,14.02
2022-11-09T21:55:53.846Z,14.57
2022-11-09T21:58:40.405Z,14.52
2022-11-09T22:01:26.861Z,19.08
2022-11-09T22:04:14.468Z,14.38
2022-11-09T22:07:00.734Z,13.95
2022-11-09T22:10:09.276Z,13.50
2022-11-09T22:13:19.810Z,18.73
2022-11-09T22:16:07.216Z,23.55
2022-11-09T22:19:11.229Z,23.15
2022-11-09T22:21:59.277Z,24.02
2022-11-09T22:24:45.757Z,19.73
2022-11-09T22:27:32.305Z,15.13
2022-11-09T22:30:18.815Z,19.83
2022-11-09T22:33:05.290Z,17.73
2022-11-09T22:35:55.029Z,19.45
2022-11-09T22:38:43.326Z,22.33
2022-11-09T22:41:29.733Z,17.70
2022-11-09T22:44:16.109Z,20.77
2022-11-09T22:47:02.700Z,19.23
2022-11-09T22:49:49.075Z,18.90
2022-11-09T22:52:35.258Z,19.48
2022-11-09T22:55:22.945Z,21.08
2022-11-09T22:58:09.302Z,21.80
2022-11-09T23:00:55.651Z,18.08
2022-11-09T23:03:42.051Z,16.33
2022-11-09T23:06:28.444Z,18.98
2022-11-09T23:09:15.043Z,22.17
2022-11-09T23:12:02.669Z,19.73
2022-11-09T23:15:12.413Z,20.80
2022-11-09T23:18:16.548Z,16.55
2022-11-09T23:21:03.214Z,16.73
2022-11-09T23:23:49.665Z,16.33
2022-11-09T23:26:36.021Z,16.40
2022-11-09T23:29:23.686Z,16.55
2022-11-09T23:32:09.865Z,16.27
2022-11-09T23:34:56.199Z,18.10
2022-11-09T23:37:42.744Z,16.80
2022-11-09T23:40:29.074Z,15.02
2022-11-09T23:43:16.280Z,16.23
2022-11-09T23:46:04.894Z,17.17
2022-11-09T23:48:51.502Z,14.65
2022-11-09T23:51:38.005Z,14.90
2022-11-09T23:54:24.304Z,14.77
2022-11-09T23:57:10.621Z,17.88
2022-11-09T23:59:56.920Z,14.15
